Current | Forecast
Updated: 7:30 AM +05 on August 21, 2017
Observed at Perm' Airport, Russia
Temperature 64°F
Humidity 94%
Dew Point 63°F
Wind West at 2 mph
Pressure 30.18 in (Steady)
Conditions Clear
Visibility 3.7 miles
UV N/A
Clouds
Yesterday's Maximum 75°F
Yesterday's Minimum 59°F approx.
Yesterday's Cooling Degree Days 2 approx.
Sunrise5:51 AM +05
Sunset8:40 PM +05
Moon Rise4:58 AM +05
Moon Set8:32 PM +05
Moon PhaseMoon Phase
Waning Crescent
Raw METARMETAR USPP 210230Z 26001MPS 6000 NSC 18/17 Q1022 R21/090060 TEMPO 2000 BR BKN002 RMK QFE756


Monday
. High: 75° F.
Tuesday
. High: 80° F.
Wednesday
. High: 78° F.
Thursday
. High: 55° F.
Friday
. High: 53° F.
Saturday
. High: 55° F.
Sunday
. High: 53° F.
Monday
. High: 59° F.

Units: English | Metric

Find the Weather for any City, State or Zipcode, or Country:

U.S. State List | Severe Weather | Tropical Storms | Ski Conditions
United States | Canada | Central America | South America | Asia | Europe | Australia | Africa | Islands

Weather Underground

© Copyright 2017
The Weather Company, LLC